sensor_id;sensor_type;location;lat;lon;timestamp;temperature;humidity
11284;DHT22;5698;47.332;11.180;2023-06-22T00:01:20;15.70;99.90
11284;DHT22;5698;47.332;11.180;2023-06-22T00:03:48;15.80;99.90
11284;DHT22;5698;47.332;11.180;2023-06-22T00:06:15;15.80;99.90
11284;DHT22;5698;47.332;11.180;2023-06-22T00:08:42;15.80;99.90
11284;DHT22;5698;47.332;11.180;2023-06-22T00:11:10;15.90;99.90
11284;DHT22;5698;47.332;11.180;2023-06-22T00:13:38;15.90;99.90
11284;DHT22;5698;47.332;11.180;2023-06-22T00:16:05;16.00;99.90
11284;DHT22;5698;47.332;11.180;2023-06-22T00:18:32;16.00;99.90
11284;DHT22;5698;47.332;11.180;2023-06-22T00:20:59;16.10;99.90
11284;DHT22;5698;47.332;11.180;2023-06-22T00:23:26;16.10;99.90
11284;DHT22;5698;47.332;11.180;2023-06-22T00:25:53;16.10;99.90
11284;DHT22;5698;47.332;11.180;2023-06-22T00:28:21;16.10;99.90
11284;DHT22;5698;47.332;11.180;2023-06-22T00:30:49;16.10;99.90
11284;DHT22;5698;47.332;11.180;2023-06-22T00:33:16;16.10;99.90
11284;DHT22;5698;47.332;11.180;2023-06-22T00:35:43;16.10;99.90
11284;DHT22;5698;47.332;11.180;2023-06-22T00:38:10;16.10;99.90
11284;DHT22;5698;47.332;11.180;2023-06-22T00:40:37;16.20;99.90
11284;DHT22;5698;47.332;11.180;2023-06-22T00:43:05;16.10;99.90
11284;DHT22;5698;47.332;11.180;2023-06-22T00:45:33;16.20;99.90
11284;DHT22;5698;47.332;11.180;2023-06-22T00:48:01;16.10;99.90
11284;DHT22;5698;47.332;11.180;2023-06-22T00:50:30;16.10;99.90
11284;DHT22;5698;47.332;11.180;2023-06-22T00:53:03;16.00;99.90
11284;DHT22;5698;47.332;11.180;2023-06-22T00:55:34;16.00;99.90
11284;DHT22;5698;47.332;11.180;2023-06-22T00:58:03;16.00;99.90
11284;DHT22;5698;47.332;11.180;2023-06-22T01:00:34;15.90;99.90
11284;DHT22;5698;47.332;11.180;2023-06-22T01:03:02;15.90;99.90
11284;DHT22;5698;47.332;11.180;2023-06-22T01:05:29;15.80;99.90
11284;DHT22;5698;47.332;11.180;2023-06-22T01:08:08;15.80;99.90
11284;DHT22;5698;47.332;11.180;2023-06-22T01:10:43;15.70;99.90
11284;DHT22;5698;47.332;11.180;2023-06-22T01:13:18;15.70;99.90
11284;DHT22;5698;47.332;11.180;2023-06-22T01:15:53;15.70;99.90
11284;DHT22;5698;47.332;11.180;2023-06-22T01:18:22;15.60;99.90
11284;DHT22;5698;47.332;11.180;2023-06-22T01:20:52;15.60;99.90
11284;DHT22;5698;47.332;11.180;2023-06-22T01:23:27;15.60;99.90
11284;DHT22;5698;47.332;11.180;2023-06-22T01:26:02;15.60;99.90
11284;DHT22;5698;47.332;11.180;2023-06-22T01:28:49;15.60;99.90
11284;DHT22;5698;47.332;11.180;2023-06-22T01:31:19;15.50;99.90
11284;DHT22;5698;47.332;11.180;2023-06-22T01:33:50;15.50;99.90
11284;DHT22;5698;47.332;11.180;2023-06-22T01:36:18;15.50;99.90
11284;DHT22;5698;47.332;11.180;2023-06-22T01:38:47;15.40;99.90
11284;DHT22;5698;47.332;11.180;2023-06-22T01:41:15;15.40;99.90
11284;DHT22;5698;47.332;11.180;2023-06-22T01:43:43;15.40;99.90
11284;DHT22;5698;47.332;11.180;2023-06-22T01:46:12;15.40;99.90
11284;DHT22;5698;47.332;11.180;2023-06-22T01:48:39;15.40;99.90
11284;DHT22;5698;47.332;11.180;2023-06-22T01:51:07;15.30;99.90
11284;DHT22;5698;47.332;11.180;2023-06-22T01:53:34;15.30;99.90
11284;DHT22;5698;47.332;11.180;2023-06-22T01:56:01;15.30;99.90
11284;DHT22;5698;47.332;11.180;2023-06-22T01:58:29;15.30;99.90
11284;DHT22;5698;47.332;11.180;2023-06-22T02:01:00;15.30;99.90
11284;DHT22;5698;47.332;11.180;2023-06-22T02:03:34;15.30;99.90
11284;DHT22;5698;47.332;11.180;2023-06-22T02:06:05;15.30;99.90
11284;DHT22;5698;47.332;11.180;2023-06-22T02:08:38;15.30;99.90
11284;DHT22;5698;47.332;11.180;2023-06-22T02:11:08;15.30;99.90
11284;DHT22;5698;47.332;11.180;2023-06-22T02:13:36;15.30;99.90
11284;DHT22;5698;47.332;11.180;2023-06-22T02:16:03;15.40;99.90
11284;DHT22;5698;47.332;11.180;2023-06-22T02:18:32;15.40;99.90
11284;DHT22;5698;47.332;11.180;2023-06-22T02:21:01;15.50;99.90
11284;DHT22;5698;47.332;11.180;2023-06-22T02:23:28;15.60;99.90
11284;DHT22;5698;47.332;11.180;2023-06-22T02:25:55;15.60;99.90
11284;DHT22;5698;47.332;11.180;2023-06-22T02:28:22;15.60;99.90
11284;DHT22;5698;47.332;11.180;2023-06-22T02:30:49;15.50;99.90
11284;DHT22;5698;47.332;11.180;2023-06-22T02:33:16;15.50;99.90
11284;DHT22;5698;47.332;11.180;2023-06-22T02:35:45;15.50;99.90
11284;DHT22;5698;47.332;11.180;2023-06-22T02:38:14;15.40;99.90
11284;DHT22;5698;47.332;11.180;2023-06-22T02:40:43;15.40;99.90
11284;DHT22;5698;47.332;11.180;2023-06-22T02:43:10;15.40;99.90
11284;DHT22;5698;47.332;11.180;2023-06-22T02:45:37;15.40;99.90
11284;DHT22;5698;47.332;11.180;2023-06-22T02:48:04;15.40;99.90
11284;DHT22;5698;47.332;11.180;2023-06-22T02:50:33;15.40;99.90
11284;DHT22;5698;47.332;11.180;2023-06-22T02:53:01;15.40;99.90
11284;DHT22;5698;47.332;11.180;2023-06-22T02:55:28;15.40;99.90
11284;DHT22;5698;47.332;11.180;2023-06-22T02:57:56;15.40;99.90
11284;DHT22;5698;47.332;11.180;2023-06-22T03:00:25;15.40;99.90
11284;DHT22;5698;47.332;11.180;2023-06-22T03:02:56;15.40;99.90
11284;DHT22;5698;47.332;11.180;2023-06-22T03:05:24;15.40;99.90
11284;DHT22;5698;47.332;11.180;2023-06-22T03:07:51;15.40;99.90
11284;DHT22;5698;47.332;11.180;2023-06-22T03:10:20;15.40;99.90
11284;DHT22;5698;47.332;11.180;2023-06-22T03:12:47;15.50;99.90
11284;DHT22;5698;47.332;11.180;2023-06-22T03:15:14;15.40;99.90
11284;DHT22;5698;47.332;11.180;2023-06-22T03:17:42;15.40;99.90
11284;DHT22;5698;47.332;11.180;2023-06-22T03:20:10;15.40;99.90
11284;DHT22;5698;47.332;11.180;2023-06-22T03:22:38;15.30;99.90
11284;DHT22;5698;47.332;11.180;2023-06-22T03:25:06;15.30;99.90
11284;DHT22;5698;47.332;11.180;2023-06-22T03:27:38;15.30;99.90
11284;DHT22;5698;47.332;11.180;2023-06-22T03:30:06;15.30;99.90
11284;DHT22;5698;47.332;11.180;2023-06-22T03:32:34;15.30;99.90
11284;DHT22;5698;47.332;11.180;2023-06-22T03:35:01;15.20;99.90
11284;DHT22;5698;47.332;11.180;2023-06-22T03:37:28;15.20;99.90
11284;DHT22;5698;47.332;11.180;2023-06-22T03:39:55;15.20;99.90
11284;DHT22;5698;47.332;11.180;2023-06-22T03:42:22;15.20;99.90
11284;DHT22;5698;47.332;11.180;2023-06-22T03:44:51;15.10;99.90
11284;DHT22;5698;47.332;11.180;2023-06-22T03:47:18;15.20;99.90
11284;DHT22;5698;47.332;11.180;2023-06-22T03:49:45;15.20;99.90
11284;DHT22;5698;47.332;11.180;2023-06-22T03:52:12;15.20;99.90
11284;DHT22;5698;47.332;11.180;2023-06-22T03:54:39;15.20;99.90
11284;DHT22;5698;47.332;11.180;2023-06-22T03:57:06;15.20;99.90
11284;DHT22;5698;47.332;11.180;2023-06-22T03:59:33;15.20;99.90
11284;DHT22;5698;47.332;11.180;2023-06-22T04:02:02;15.30;99.90
11284;DHT22;5698;47.332;11.180;2023-06-22T04:04:29;15.30;99.90
11284;DHT22;5698;47.332;11.180;2023-06-22T04:06:56;15.30;99.90
11284;DHT22;5698;47.332;11.180;2023-06-22T04:09:23;15.30;99.90
11284;DHT22;5698;47.332;11.180;2023-06-22T04:11:50;15.30;99.90
11284;DHT22;5698;47.332;11.180;2023-06-22T04:14:17;15.40;99.90
11284;DHT22;5698;47.332;11.180;2023-06-22T04:16:44;15.40;99.90
11284;DHT22;5698;47.332;11.180;2023-06-22T04:19:12;15.40;99.90
11284;DHT22;5698;47.332;11.180;2023-06-22T04:21:42;15.40;99.90
11284;DHT22;5698;47.332;11.180;2023-06-22T04:24:09;15.50;99.90
11284;DHT22;5698;47.332;11.180;2023-06-22T04:26:37;15.50;99.90
11284;DHT22;5698;47.332;11.180;2023-06-22T04:29:04;15.50;99.90
11284;DHT22;5698;47.332;11.180;2023-06-22T04:31:31;15.60;99.90
11284;DHT22;5698;47.332;11.180;2023-06-22T04:34:03;15.60;99.90
11284;DHT22;5698;47.332;11.180;2023-06-22T04:36:34;15.60;99.90
11284;DHT22;5698;47.332;11.180;2023-06-22T04:39:04;15.60;99.90
11284;DHT22;5698;47.332;11.180;2023-06-22T04:41:32;15.70;99.90
11284;DHT22;5698;47.332;11.180;2023-06-22T04:44:11;15.70;99.90
11284;DHT22;5698;47.332;11.180;2023-06-22T04:46:38;15.70;99.90
11284;DHT22;5698;47.332;11.180;2023-06-22T04:49:06;15.80;99.90
11284;DHT22;5698;47.332;11.180;2023-06-22T04:51:41;15.80;99.90
11284;DHT22;5698;47.332;11.180;2023-06-22T04:54:09;15.90;99.90
11284;DHT22;5698;47.332;11.180;2023-06-22T04:56:36;15.90;99.90
11284;DHT22;5698;47.332;11.180;2023-06-22T04:59:06;16.00;99.90
11284;DHT22;5698;47.332;11.180;2023-06-22T05:01:33;16.10;99.90
11284;DHT22;5698;47.332;11.180;2023-06-22T05:04:01;16.10;99.90
11284;DHT22;5698;47.332;11.180;2023-06-22T05:06:29;16.30;99.90
11284;DHT22;5698;47.332;11.180;2023-06-22T05:08:58;16.30;99.90
11284;DHT22;5698;47.332;11.180;2023-06-22T05:11:25;16.40;99.90
11284;DHT22;5698;47.332;11.180;2023-06-22T05:13:52;16.50;99.90
11284;DHT22;5698;47.332;11.180;2023-06-22T05:16:20;16.60;99.90
11284;DHT22;5698;47.332;11.180;2023-06-22T05:18:51;16.70;99.90
11284;DHT22;5698;47.332;11.180;2023-06-22T05:21:18;16.80;99.90
11284;DHT22;5698;47.332;11.180;2023-06-22T05:23:45;16.90;99.90
11284;DHT22;5698;47.332;11.180;2023-06-22T05:26:14;16.90;99.90
11284;DHT22;5698;47.332;11.180;2023-06-22T05:28:41;17.00;99.90
11284;DHT22;5698;47.332;11.180;2023-06-22T05:31:11;17.10;99.90
11284;DHT22;5698;47.332;11.180;2023-06-22T05:33:38;17.20;99.90
11284;DHT22;5698;47.332;11.180;2023-06-22T05:36:05;17.30;99.90
11284;DHT22;5698;47.332;11.180;2023-06-22T05:38:32;17.40;99.90
11284;DHT22;5698;47.332;11.180;2023-06-22T05:40:59;17.50;99.90
11284;DHT22;5698;47.332;11.180;2023-06-22T05:43:28;17.60;99.90
11284;DHT22;5698;47.332;11.180;2023-06-22T05:45:55;17.70;99.90
11284;DHT22;5698;47.332;11.180;2023-06-22T05:48:22;17.80;99.90
11284;DHT22;5698;47.332;11.180;2023-06-22T05:50:49;17.90;99.90
11284;DHT22;5698;47.332;11.180;2023-06-22T05:53:16;18.00;99.90
11284;DHT22;5698;47.332;11.180;2023-06-22T05:55:43;18.10;99.90
11284;DHT22;5698;47.332;11.180;2023-06-22T05:58:10;18.20;99.90
11284;DHT22;5698;47.332;11.180;2023-06-22T06:00:40;18.30;99.90
11284;DHT22;5698;47.332;11.180;2023-06-22T06:03:09;18.40;99.90
11284;DHT22;5698;47.332;11.180;2023-06-22T06:05:36;18.60;99.90
11284;DHT22;5698;47.332;11.180;2023-06-22T06:08:05;18.70;99.90
11284;DHT22;5698;47.332;11.180;2023-06-22T06:10:33;18.80;99.90
11284;DHT22;5698;47.332;11.180;2023-06-22T06:13:00;19.00;99.90
11284;DHT22;5698;47.332;11.180;2023-06-22T06:15:29;19.00;99.90
11284;DHT22;5698;47.332;11.180;2023-06-22T06:17:59;19.10;99.90
11284;DHT22;5698;47.332;11.180;2023-06-22T06:20:27;19.20;99.90
11284;DHT22;5698;47.332;11.180;2023-06-22T06:22:54;19.20;99.90
11284;DHT22;5698;47.332;11.180;2023-06-22T06:25:22;19.20;99.90
11284;DHT22;5698;47.332;11.180;2023-06-22T06:27:50;19.30;99.90
11284;DHT22;5698;47.332;11.180;2023-06-22T06:30:20;19.40;99.90
11284;DHT22;5698;47.332;11.180;2023-06-22T06:32:47;19.40;99.90
11284;DHT22;5698;47.332;11.180;2023-06-22T06:35:16;19.40;99.90
11284;DHT22;5698;47.332;11.180;2023-06-22T06:37:44;19.50;99.90
11284;DHT22;5698;47.332;11.180;2023-06-22T06:40:12;19.60;99.90
11284;DHT22;5698;47.332;11.180;2023-06-22T06:42:41;19.70;99.90
11284;DHT22;5698;47.332;11.180;2023-06-22T06:45:10;19.80;99.90
11284;DHT22;5698;47.332;11.180;2023-06-22T06:47:37;19.80;99.90
11284;DHT22;5698;47.332;11.180;2023-06-22T06:50:06;19.90;99.90
11284;DHT22;5698;47.332;11.180;2023-06-22T06:52:34;20.10;99.90
11284;DHT22;5698;47.332;11.180;2023-06-22T06:55:02;20.20;99.90
11284;DHT22;5698;47.332;11.180;2023-06-22T06:57:30;20.40;99.90
11284;DHT22;5698;47.332;11.180;2023-06-22T06:59:58;20.40;99.90
11284;DHT22;5698;47.332;11.180;2023-06-22T07:02:26;20.50;99.90
11284;DHT22;5698;47.332;11.180;2023-06-22T07:04:53;20.70;99.90
11284;DHT22;5698;47.332;11.180;2023-06-22T07:07:22;20.80;99.90
11284;DHT22;5698;47.332;11.180;2023-06-22T07:09:50;20.90;99.90
11284;DHT22;5698;47.332;11.180;2023-06-22T07:12:17;21.10;99.90
11284;DHT22;5698;47.332;11.180;2023-06-22T07:14:44;21.10;99.90
11284;DHT22;5698;47.332;11.180;2023-06-22T07:17:11;21.30;99.90
11284;DHT22;5698;47.332;11.180;2023-06-22T07:19:38;21.30;99.90
11284;DHT22;5698;47.332;11.180;2023-06-22T07:22:08;21.30;99.90
11284;DHT22;5698;47.332;11.180;2023-06-22T07:24:35;21.40;99.90
11284;DHT22;5698;47.332;11.180;2023-06-22T07:27:04;21.50;99.90
11284;DHT22;5698;47.332;11.180;2023-06-22T07:29:32;21.50;99.90
11284;DHT22;5698;47.332;11.180;2023-06-22T07:31:59;21.60;99.90
11284;DHT22;5698;47.332;11.180;2023-06-22T07:34:26;21.80;99.90
11284;DHT22;5698;47.332;11.180;2023-06-22T07:36:53;22.00;99.90
11284;DHT22;5698;47.332;11.180;2023-06-22T07:39:20;22.00;99.90
11284;DHT22;5698;47.332;11.180;2023-06-22T07:41:51;22.20;99.90
11284;DHT22;5698;47.332;11.180;2023-06-22T07:44:19;22.40;99.90
11284;DHT22;5698;47.332;11.180;2023-06-22T07:46:46;22.50;99.90
11284;DHT22;5698;47.332;11.180;2023-06-22T07:49:13;22.70;99.90
11284;DHT22;5698;47.332;11.180;2023-06-22T07:51:40;22.80;99.90
11284;DHT22;5698;47.332;11.180;2023-06-22T07:54:09;22.90;99.90
11284;DHT22;5698;47.332;11.180;2023-06-22T07:56:37;23.10;99.90
11284;DHT22;5698;47.332;11.180;2023-06-22T07:59:04;23.30;99.90
11284;DHT22;5698;47.332;11.180;2023-06-22T08:01:32;23.50;99.90
11284;DHT22;5698;47.332;11.180;2023-06-22T08:03:59;23.80;99.90
11284;DHT22;5698;47.332;11.180;2023-06-22T08:06:26;23.90;99.90
11284;DHT22;5698;47.332;11.180;2023-06-22T08:08:53;24.10;99.90
11284;DHT22;5698;47.332;11.180;2023-06-22T08:11:22;24.20;99.90
11284;DHT22;5698;47.332;11.180;2023-06-22T08:13:51;24.30;99.90
11284;DHT22;5698;47.332;11.180;2023-06-22T08:16:18;24.40;99.90
11284;DHT22;5698;47.332;11.180;2023-06-22T08:18:46;24.40;99.90
11284;DHT22;5698;47.332;11.180;2023-06-22T08:21:14;24.40;99.90
11284;DHT22;5698;47.332;11.180;2023-06-22T08:23:41;24.50;99.90
11284;DHT22;5698;47.332;11.180;2023-06-22T08:26:08;24.50;99.90
11284;DHT22;5698;47.332;11.180;2023-06-22T08:28:35;24.60;99.90
11284;DHT22;5698;47.332;11.180;2023-06-22T08:31:03;24.60;99.90
11284;DHT22;5698;47.332;11.180;2023-06-22T08:33:30;24.60;99.30
11284;DHT22;5698;47.332;11.180;2023-06-22T08:35:58;24.70;99.30
11284;DHT22;5698;47.332;11.180;2023-06-22T08:38:25;24.70;99.90
11284;DHT22;5698;47.332;11.180;2023-06-22T08:40:52;24.70;98.90
11284;DHT22;5698;47.332;11.180;2023-06-22T08:43:19;24.70;97.80
11284;DHT22;5698;47.332;11.180;2023-06-22T08:45:46;24.60;98.60
11284;DHT22;5698;47.332;11.180;2023-06-22T08:48:14;24.70;98.50
11284;DHT22;5698;47.332;11.180;2023-06-22T08:50:41;24.70;99.00
11284;DHT22;5698;47.332;11.180;2023-06-22T08:53:09;24.70;97.50
11284;DHT22;5698;47.332;11.180;2023-06-22T08:55:36;24.80;97.40
11284;DHT22;5698;47.332;11.180;2023-06-22T08:58:03;24.90;97.40
11284;DHT22;5698;47.332;11.180;2023-06-22T09:00:30;24.90;96.50
11284;DHT22;5698;47.332;11.180;2023-06-22T09:03:00;25.00;95.80
11284;DHT22;5698;47.332;11.180;2023-06-22T09:05:27;25.00;96.10
11284;DHT22;5698;47.332;11.180;2023-06-22T09:07:55;25.10;97.20
11284;DHT22;5698;47.332;11.180;2023-06-22T09:10:25;25.10;96.40
11284;DHT22;5698;47.332;11.180;2023-06-22T09:12:52;25.20;96.40
11284;DHT22;5698;47.332;11.180;2023-06-22T09:15:19;25.20;95.40
11284;DHT22;5698;47.332;11.180;2023-06-22T09:17:46;25.40;95.70
11284;DHT22;5698;47.332;11.180;2023-06-22T09:20:14;25.30;94.40
11284;DHT22;5698;47.332;11.180;2023-06-22T09:22:41;25.50;94.70
11284;DHT22;5698;47.332;11.180;2023-06-22T09:25:09;25.50;94.90
11284;DHT22;5698;47.332;11.180;2023-06-22T09:27:37;25.60;94.30
11284;DHT22;5698;47.332;11.180;2023-06-22T09:30:05;25.60;93.90
11284;DHT22;5698;47.332;11.180;2023-06-22T09:32:33;25.60;93.90
11284;DHT22;5698;47.332;11.180;2023-06-22T09:35:03;25.60;93.80
11284;DHT22;5698;47.332;11.180;2023-06-22T09:37:32;25.50;93.90
11284;DHT22;5698;47.332;11.180;2023-06-22T09:39:59;25.40;93.80
11284;DHT22;5698;47.332;11.180;2023-06-22T09:42:26;25.30;93.90
11284;DHT22;5698;47.332;11.180;2023-06-22T09:44:54;25.40;94.20
11284;DHT22;5698;47.332;11.180;2023-06-22T09:47:21;25.30;92.90
11284;DHT22;5698;47.332;11.180;2023-06-22T09:49:48;25.40;93.10
11284;DHT22;5698;47.332;11.180;2023-06-22T09:52:15;25.40;92.60
11284;DHT22;5698;47.332;11.180;2023-06-22T09:54:42;25.40;92.70
11284;DHT22;5698;47.332;11.180;2023-06-22T09:57:09;25.40;92.00
11284;DHT22;5698;47.332;11.180;2023-06-22T09:59:36;25.40;91.90
11284;DHT22;5698;47.332;11.180;2023-06-22T10:02:07;25.40;93.30
11284;DHT22;5698;47.332;11.180;2023-06-22T10:04:34;25.60;92.40
11284;DHT22;5698;47.332;11.180;2023-06-22T10:07:01;25.60;93.10
11284;DHT22;5698;47.332;11.180;2023-06-22T10:09:28;25.60;93.00
11284;DHT22;5698;47.332;11.180;2023-06-22T10:11:55;25.80;92.60
11284;DHT22;5698;47.332;11.180;2023-06-22T10:14:22;25.80;92.70
11284;DHT22;5698;47.332;11.180;2023-06-22T10:16:52;25.80;92.70
11284;DHT22;5698;47.332;11.180;2023-06-22T10:19:20;25.80;92.50
11284;DHT22;5698;47.332;11.180;2023-06-22T10:21:47;25.60;92.50
11284;DHT22;5698;47.332;11.180;2023-06-22T10:24:14;25.60;92.80
11284;DHT22;5698;47.332;11.180;2023-06-22T10:26:41;25.60;93.00
11284;DHT22;5698;47.332;11.180;2023-06-22T10:29:08;25.60;93.40
11284;DHT22;5698;47.332;11.180;2023-06-22T10:31:35;25.70;93.40
11284;DHT22;5698;47.332;11.180;2023-06-22T10:34:02;25.70;93.30
11284;DHT22;5698;47.332;11.180;2023-06-22T10:36:30;25.80;92.60
11284;DHT22;5698;47.332;11.180;2023-06-22T10:38:57;25.80;92.90
11284;DHT22;5698;47.332;11.180;2023-06-22T10:41:27;25.90;92.90
11284;DHT22;5698;47.332;11.180;2023-06-22T10:43:55;25.90;93.00
11284;DHT22;5698;47.332;11.180;2023-06-22T10:46:24;25.90;92.90
11284;DHT22;5698;47.332;11.180;2023-06-22T10:48:51;25.70;92.10
11284;DHT22;5698;47.332;11.180;2023-06-22T10:51:20;25.60;91.90
11284;DHT22;5698;47.332;11.180;2023-06-22T10:53:49;25.70;92.40
11284;DHT22;5698;47.332;11.180;2023-06-22T10:56:17;25.80;91.80
11284;DHT22;5698;47.332;11.180;2023-06-22T10:58:44;25.70;92.00
11284;DHT22;5698;47.332;11.180;2023-06-22T11:01:12;25.80;92.60
11284;DHT22;5698;47.332;11.180;2023-06-22T11:03:39;25.90;92.50
11284;DHT22;5698;47.332;11.180;2023-06-22T11:06:06;26.10;92.10
11284;DHT22;5698;47.332;11.180;2023-06-22T11:08:33;26.40;92.60
11284;DHT22;5698;47.332;11.180;2023-06-22T11:11:01;26.70;92.80
11284;DHT22;5698;47.332;11.180;2023-06-22T11:13:28;26.90;91.00
11284;DHT22;5698;47.332;11.180;2023-06-22T11:15:55;27.00;90.10
11284;DHT22;5698;47.332;11.180;2023-06-22T11:18:22;27.10;89.80
11284;DHT22;5698;47.332;11.180;2023-06-22T11:20:49;27.30;90.30
11284;DHT22;5698;47.332;11.180;2023-06-22T11:23:16;27.50;87.70
11284;DHT22;5698;47.332;11.180;2023-06-22T11:25:43;27.60;85.00
11284;DHT22;5698;47.332;11.180;2023-06-22T11:28:13;27.80;87.40
11284;DHT22;5698;47.332;11.180;2023-06-22T11:30:40;27.80;85.40
11284;DHT22;5698;47.332;11.180;2023-06-22T11:33:07;27.90;86.40
11284;DHT22;5698;47.332;11.180;2023-06-22T11:35:34;28.00;85.10
11284;DHT22;5698;47.332;11.180;2023-06-22T11:38:01;28.10;83.30
11284;DHT22;5698;47.332;11.180;2023-06-22T11:40:29;28.10;83.20
11284;DHT22;5698;47.332;11.180;2023-06-22T11:42:56;28.10;81.90
11284;DHT22;5698;47.332;11.180;2023-06-22T11:45:25;28.00;81.30
11284;DHT22;5698;47.332;11.180;2023-06-22T11:47:52;28.00;82.20
11284;DHT22;5698;47.332;11.180;2023-06-22T11:50:19;28.00;81.90
11284;DHT22;5698;47.332;11.180;2023-06-22T11:52:46;28.00;80.90
11284;DHT22;5698;47.332;11.180;2023-06-22T11:55:13;28.10;80.60
11284;DHT22;5698;47.332;11.180;2023-06-22T11:57:53;28.10;79.20
11284;DHT22;5698;47.332;11.180;2023-06-22T12:00:21;28.20;80.70
11284;DHT22;5698;47.332;11.180;2023-06-22T12:02:52;28.40;79.70
11284;DHT22;5698;47.332;11.180;2023-06-22T12:05:19;28.40;78.20
11284;DHT22;5698;47.332;11.180;2023-06-22T12:07:47;28.60;75.10
11284;DHT22;5698;47.332;11.180;2023-06-22T12:10:14;28.70;74.10
11284;DHT22;5698;47.332;11.180;2023-06-22T12:12:41;28.80;71.60
11284;DHT22;5698;47.332;11.180;2023-06-22T12:15:09;29.00;67.50
11284;DHT22;5698;47.332;11.180;2023-06-22T12:17:36;29.10;69.60
11284;DHT22;5698;47.332;11.180;2023-06-22T12:20:06;29.20;70.30
11284;DHT22;5698;47.332;11.180;2023-06-22T12:22:34;29.40;68.20
11284;DHT22;5698;47.332;11.180;2023-06-22T12:25:03;29.50;68.10
11284;DHT22;5698;47.332;11.180;2023-06-22T12:27:30;29.50;66.10
11284;DHT22;5698;47.332;11.180;2023-06-22T12:29:57;29.50;67.30
11284;DHT22;5698;47.332;11.180;2023-06-22T12:32:24;29.60;70.00
11284;DHT22;5698;47.332;11.180;2023-06-22T12:34:55;29.40;66.90
11284;DHT22;5698;47.332;11.180;2023-06-22T12:37:23;29.40;66.80
11284;DHT22;5698;47.332;11.180;2023-06-22T12:39:50;29.40;67.50
11284;DHT22;5698;47.332;11.180;2023-06-22T12:42:17;29.50;66.50
11284;DHT22;5698;47.332;11.180;2023-06-22T12:44:44;29.60;69.10
11284;DHT22;5698;47.332;11.180;2023-06-22T12:47:11;29.50;70.40
11284;DHT22;5698;47.332;11.180;2023-06-22T12:49:39;29.50;70.90
11284;DHT22;5698;47.332;11.180;2023-06-22T12:52:09;29.60;65.50
11284;DHT22;5698;47.332;11.180;2023-06-22T12:54:38;29.70;68.40
11284;DHT22;5698;47.332;11.180;2023-06-22T12:57:05;29.70;69.20
11284;DHT22;5698;47.332;11.180;2023-06-22T12:59:33;29.60;68.70
11284;DHT22;5698;47.332;11.180;2023-06-22T13:02:00;29.60;67.50
11284;DHT22;5698;47.332;11.180;2023-06-22T13:04:26;29.60;65.20
11284;DHT22;5698;47.332;11.180;2023-06-22T13:06:53;29.70;67.60
11284;DHT22;5698;47.332;11.180;2023-06-22T13:09:20;29.80;65.90
11284;DHT22;5698;47.332;11.180;2023-06-22T13:11:49;29.70;69.40
11284;DHT22;5698;47.332;11.180;2023-06-22T13:14:17;29.60;67.70
11284;DHT22;5698;47.332;11.180;2023-06-22T13:16:44;29.70;66.20
11284;DHT22;5698;47.332;11.180;2023-06-22T13:19:11;29.70;63.60
11284;DHT22;5698;47.332;11.180;2023-06-22T13:21:38;29.70;69.10
11284;DHT22;5698;47.332;11.180;2023-06-22T13:24:06;29.70;64.50
11284;DHT22;5698;47.332;11.180;2023-06-22T13:26:33;29.70;66.20
11284;DHT22;5698;47.332;11.180;2023-06-22T13:29:01;29.70;63.90
11284;DHT22;5698;47.332;11.180;2023-06-22T13:31:28;29.70;68.60
11284;DHT22;5698;47.332;11.180;2023-06-22T13:33:55;29.60;66.80
11284;DHT22;5698;47.332;11.180;2023-06-22T13:36:22;29.60;67.80
11284;DHT22;5698;47.332;11.180;2023-06-22T13:38:50;29.40;64.40
11284;DHT22;5698;47.332;11.180;2023-06-22T13:41:17;29.40;65.40
11284;DHT22;5698;47.332;11.180;2023-06-22T13:43:44;29.30;63.90
11284;DHT22;5698;47.332;11.180;2023-06-22T13:46:12;29.20;65.50
11284;DHT22;5698;47.332;11.180;2023-06-22T13:48:39;29.30;66.00
11284;DHT22;5698;47.332;11.180;2023-06-22T13:51:06;29.20;64.10
11284;DHT22;5698;47.332;11.180;2023-06-22T13:53:33;29.20;62.20
11284;DHT22;5698;47.332;11.180;2023-06-22T13:56:00;29.40;64.10
11284;DHT22;5698;47.332;11.180;2023-06-22T13:58:27;29.40;65.20
11284;DHT22;5698;47.332;11.180;2023-06-22T14:00:54;29.30;64.40
11284;DHT22;5698;47.332;11.180;2023-06-22T14:03:22;29.20;62.40
11284;DHT22;5698;47.332;11.180;2023-06-22T14:05:49;29.20;66.20
11284;DHT22;5698;47.332;11.180;2023-06-22T14:08:19;29.20;65.90
11284;DHT22;5698;47.332;11.180;2023-06-22T14:10:49;29.20;64.20
11284;DHT22;5698;47.332;11.180;2023-06-22T14:13:16;29.20;63.70
11284;DHT22;5698;47.332;11.180;2023-06-22T14:15:43;29.10;61.60
11284;DHT22;5698;47.332;11.180;2023-06-22T14:18:10;29.30;64.80
11284;DHT22;5698;47.332;11.180;2023-06-22T14:20:38;29.40;62.90
11284;DHT22;5698;47.332;11.180;2023-06-22T14:23:05;29.30;62.10
11284;DHT22;5698;47.332;11.180;2023-06-22T14:25:32;29.30;62.00
11284;DHT22;5698;47.332;11.180;2023-06-22T14:27:59;29.20;63.70
11284;DHT22;5698;47.332;11.180;2023-06-22T14:30:26;29.30;60.30
11284;DHT22;5698;47.332;11.180;2023-06-22T14:32:53;29.30;60.70
11284;DHT22;5698;47.332;11.180;2023-06-22T14:35:20;29.30;63.70
11284;DHT22;5698;47.332;11.180;2023-06-22T14:37:49;29.30;58.60
11284;DHT22;5698;47.332;11.180;2023-06-22T14:40:16;29.30;60.90
11284;DHT22;5698;47.332;11.180;2023-06-22T14:42:43;29.20;60.50
11284;DHT22;5698;47.332;11.180;2023-06-22T14:45:10;29.30;57.30
11284;DHT22;5698;47.332;11.180;2023-06-22T14:47:37;29.40;59.50
11284;DHT22;5698;47.332;11.180;2023-06-22T14:50:06;29.40;55.60
11284;DHT22;5698;47.332;11.180;2023-06-22T14:52:33;29.40;56.00
11284;DHT22;5698;47.332;11.180;2023-06-22T14:55:01;29.40;56.90
11284;DHT22;5698;47.332;11.180;2023-06-22T14:57:28;29.40;56.70
11284;DHT22;5698;47.332;11.180;2023-06-22T14:59:55;29.40;55.70
11284;DHT22;5698;47.332;11.180;2023-06-22T15:02:22;29.40;57.40
11284;DHT22;5698;47.332;11.180;2023-06-22T15:04:49;29.20;56.90
11284;DHT22;5698;47.332;11.180;2023-06-22T15:07:18;29.10;57.90
11284;DHT22;5698;47.332;11.180;2023-06-22T15:09:45;29.20;59.10
11284;DHT22;5698;47.332;11.180;2023-06-22T15:12:14;29.00;57.50
11284;DHT22;5698;47.332;11.180;2023-06-22T15:14:43;29.10;55.60
11284;DHT22;5698;47.332;11.180;2023-06-22T15:17:10;29.00;57.30
11284;DHT22;5698;47.332;11.180;2023-06-22T15:19:39;29.00;55.90
11284;DHT22;5698;47.332;11.180;2023-06-22T15:22:07;29.00;54.70
11284;DHT22;5698;47.332;11.180;2023-06-22T15:24:34;29.00;55.50
11284;DHT22;5698;47.332;11.180;2023-06-22T15:27:01;29.00;56.70
11284;DHT22;5698;47.332;11.180;2023-06-22T15:29:30;28.90;57.10
11284;DHT22;5698;47.332;11.180;2023-06-22T15:31:59;28.80;58.60
11284;DHT22;5698;47.332;11.180;2023-06-22T15:34:27;28.70;53.60